createdAt,value
2022-09-29T00:03:39.327Z,8
2022-09-29T00:08:43.890Z,7.9
2022-09-29T00:13:48.390Z,7.8
2022-09-29T00:18:51.974Z,7.6
2022-09-29T00:23:56.520Z,7.6
2022-09-29T00:29:01.006Z,7.5
2022-09-29T00:34:04.556Z,7.4
2022-09-29T00:39:09.113Z,7.3
2022-09-29T00:44:13.649Z,7.2
2022-09-29T00:49:17.200Z,7.2
2022-09-29T00:54:21.851Z,7.1
2022-09-29T00:59:26.270Z,7.1
2022-09-29T01:04:30.780Z,7.1
2022-09-29T01:09:34.385Z,7.1
2022-09-29T01:14:38.910Z,7.1
2022-09-29T01:19:43.405Z,7.1
2022-09-29T01:24:46.994Z,7
2022-09-29T01:29:51.529Z,7
2022-09-29T01:34:56.029Z,6.9
2022-09-29T01:39:59.590Z,6.8
2022-09-29T01:45:04.105Z,6.7
2022-09-29T01:50:08.674Z,6.6
2022-09-29T01:55:12.235Z,6.6
2022-09-29T02:00:16.766Z,6.6
2022-09-29T02:05:21.248Z,6.5
2022-09-29T02:10:25.818Z,6.4
2022-09-29T02:15:29.400Z,6.4
2022-09-29T02:20:32.923Z,6.4
2022-09-29T02:25:37.455Z,6.3
2022-09-29T02:30:41.991Z,6.3
2022-09-29T02:35:45.537Z,6.3
2022-09-29T02:40:50.169Z,6.3
2022-09-29T02:45:54.637Z,6.3
2022-09-29T02:50:59.147Z,6.3
2022-09-29T02:56:02.717Z,6.3
2022-09-29T03:01:07.308Z,6.2
2022-09-29T03:06:11.798Z,6.1
2022-09-29T03:11:15.342Z,6
2022-09-29T03:16:19.902Z,5.9
2022-09-29T03:21:24.372Z,5.8
2022-09-29T03:26:28.001Z,5.6
2022-09-29T03:31:32.499Z,5.5
2022-09-29T03:36:36.988Z,5.1
2022-09-29T03:41:40.577Z,5
2022-09-29T03:46:45.052Z,5.1
2022-09-29T03:51:49.628Z,5.1
2022-09-29T03:56:54.143Z,5.1
2022-09-29T04:01:57.787Z,5
2022-09-29T04:07:02.227Z,4.7
2022-09-29T04:12:06.784Z,4.5
2022-09-29T04:17:10.303Z,4.4
2022-09-29T04:22:14.826Z,4.5
2022-09-29T04:27:19.428Z,4.5
2022-09-29T04:32:22.939Z,4.6
2022-09-29T04:37:27.434Z,4.7
2022-09-29T04:42:32.024Z,4.7
2022-09-29T04:47:35.592Z,4.7
2022-09-29T04:52:40.079Z,4.7
2022-09-29T04:57:44.631Z,4.7
2022-09-29T05:02:50.097Z,4.8
2022-09-29T05:07:52.743Z,4.8
2022-09-29T05:12:57.239Z,4.9
2022-09-29T05:18:01.745Z,4.9
2022-09-29T05:23:05.306Z,4.9
2022-09-29T05:28:09.887Z,4.9
2022-09-29T05:33:14.372Z,4.9
2022-09-29T05:38:17.926Z,4.8
2022-09-29T05:43:22.498Z,4.8
2022-09-29T05:48:26.982Z,4.7
2022-09-29T05:53:30.552Z,4.7
2022-09-29T05:58:35.102Z,4.7
2022-09-29T06:03:39.605Z,4.6
2022-09-29T06:08:44.178Z,4.6
2022-09-29T06:13:47.738Z,4.7
2022-09-29T06:18:52.249Z,4.7
2022-09-29T06:23:56.772Z,4.6
2022-09-29T06:29:00.352Z,4.6
2022-09-29T06:34:03.887Z,4.7
2022-09-29T06:39:08.394Z,4.8
2022-09-29T06:44:12.974Z,4.8
2022-09-29T06:49:17.578Z,4.9
2022-09-29T06:54:21.009Z,5
2022-09-29T06:59:25.628Z,5.1
2022-09-29T07:04:30.102Z,5.2
2022-09-29T07:09:33.663Z,5.3
2022-09-29T07:14:38.184Z,5.3
2022-09-29T07:19:42.722Z,5.4
2022-09-29T07:24:46.240Z,5.5
2022-09-29T07:30:02.097Z,5.6
2022-09-29T07:34:55.309Z,5.9
2022-09-29T07:39:58.866Z,6
2022-09-29T07:45:03.446Z,6.1
2022-09-29T07:50:07.919Z,6.3
2022-09-29T07:55:12.487Z,6.2
2022-09-29T08:00:16.066Z,6.7
2022-09-29T08:05:20.549Z,6.5
2022-09-29T08:10:25.112Z,6.7
2022-09-29T08:15:28.699Z,6.8
2022-09-29T08:20:33.184Z,7.3
2022-09-29T08:25:37.708Z,7.3
2022-09-29T08:30:41.276Z,7.4
2022-09-29T08:35:45.800Z,7.4
2022-09-29T08:40:50.410Z,7.7
2022-09-29T08:46:00.612Z,7.7
2022-09-29T08:50:58.389Z,8
2022-09-29T08:56:02.985Z,8.6
2022-09-29T09:01:07.709Z,8.6
2022-09-29T09:06:11.063Z,9.4
2022-09-29T09:11:15.570Z,9.7
2022-09-29T09:16:20.205Z,9.6
2022-09-29T09:21:23.664Z,9.2
2022-09-29T09:26:28.152Z,10
2022-09-29T09:31:33.073Z,9.7
2022-09-29T09:36:36.274Z,10.5
2022-09-29T09:41:40.784Z,10.5
2022-09-29T09:46:45.375Z,11.4
2022-09-29T09:51:48.861Z,11.6
2022-09-29T09:56:53.445Z,12.5
2022-09-29T10:01:58.042Z,11.6
2022-09-29T10:07:02.499Z,12.5
2022-09-29T10:12:06.046Z,13.1
2022-09-29T10:17:10.595Z,13.6
2022-09-29T10:22:15.189Z,13.9
2022-09-29T10:27:18.644Z,14.4
2022-09-29T10:32:23.239Z,15
2022-09-29T10:37:27.756Z,14.3
2022-09-29T10:42:31.425Z,14.4
2022-09-29T10:47:35.825Z,15.2
2022-09-29T10:52:39.413Z,17
2022-09-29T10:57:43.925Z,15.3
2022-09-29T11:02:48.465Z,15.1
2022-09-29T11:07:51.991Z,16.6
2022-09-29T11:12:56.559Z,16
2022-09-29T11:18:01.184Z,17.8
2022-09-29T11:23:04.616Z,16.3
2022-09-29T11:28:09.185Z,16.6
2022-09-29T11:33:13.752Z,15.7
2022-09-29T11:38:17.268Z,16.9
2022-09-29T11:43:21.813Z,17.6
2022-09-29T11:48:28.626Z,16.2
2022-09-29T11:53:30.845Z,16.8
2022-09-29T12:02:22.922Z,17.3
2022-09-29T12:07:27.368Z,18.4
2022-09-29T12:12:30.877Z,17.4
2022-09-29T12:17:35.463Z,19.3
2022-09-29T12:22:42.968Z,20
2022-09-29T12:27:43.515Z,17.5
2022-09-29T12:32:48.074Z,19.5
2022-09-29T12:37:52.645Z,18.5
2022-09-29T12:42:57.146Z,18.1
2022-09-29T12:48:00.667Z,16.3
2022-09-29T12:53:08.923Z,17.4
2022-09-29T12:58:09.749Z,17.7
2022-09-29T13:03:13.315Z,18.1
2022-09-29T13:08:19.430Z,17.3
2022-09-29T13:13:22.396Z,17
2022-09-29T13:18:25.929Z,16.2
2022-09-29T13:23:30.502Z,17.2
2022-09-29T13:28:35.015Z,17.3
2022-09-29T13:33:38.556Z,16.5
2022-09-29T13:38:43.134Z,16.9
2022-09-29T13:43:47.712Z,16.9
2022-09-29T13:48:52.214Z,17.7
2022-09-29T13:53:55.808Z,17.6
2022-09-29T13:59:00.265Z,16.1
2022-09-29T14:04:04.826Z,16.9
2022-09-29T14:09:08.422Z,16.6
2022-09-29T14:14:12.926Z,17.5
2022-09-29T14:19:17.442Z,18.1
2022-09-29T14:24:21.082Z,16.7
2022-09-29T14:29:25.521Z,17.2
2022-09-29T14:34:30.054Z,19.6
2022-09-29T14:39:33.793Z,17.4
2022-09-29T14:44:38.163Z,19.2
2022-09-29T14:49:43.290Z,17.8
2022-09-29T14:54:47.241Z,17.5
2022-09-29T14:59:50.728Z,15.8
2022-09-29T15:04:54.318Z,17.4
2022-09-29T15:09:58.862Z,16.6
2022-09-29T15:15:03.390Z,16.6
2022-09-29T15:20:06.939Z,15.8
2022-09-29T15:25:11.492Z,16.4
2022-09-29T15:30:15.987Z,16.7
2022-09-29T15:35:20.520Z,16.2
2022-09-29T15:40:24.112Z,17
2022-09-29T15:45:28.659Z,18.7
2022-09-29T15:50:33.141Z,18.7
2022-09-29T15:55:36.731Z,17.4
2022-09-29T16:00:41.243Z,17.9
2022-09-29T16:05:45.813Z,17
2022-09-29T16:10:49.392Z,15.8
2022-09-29T16:15:53.972Z,14.2
2022-09-29T16:21:00.019Z,14.4
2022-09-29T16:26:02.032Z,14.2
2022-09-29T16:31:06.579Z,13.4
2022-09-29T16:36:11.003Z,13.4
2022-09-29T16:41:15.587Z,13.1
2022-09-29T16:46:19.164Z,13.1
2022-09-29T16:51:40.027Z,13
2022-09-29T16:56:28.210Z,12.7
2022-09-29T17:01:31.792Z,12.5
2022-09-29T17:06:36.278Z,12.4
2022-09-29T17:11:40.817Z,12.3
2022-09-29T17:16:44.364Z,12.2
2022-09-29T17:21:48.860Z,12.2
2022-09-29T17:26:53.520Z,12.2
2022-09-29T17:31:56.958Z,12.2
2022-09-29T17:37:01.486Z,12.3
2022-09-29T17:42:06.063Z,12.3
2022-09-29T17:47:24.185Z,12.4
2022-09-29T17:52:14.128Z,12.3
2022-09-29T17:57:18.742Z,12.3
2022-09-29T18:02:23.315Z,12.6
2022-09-29T18:07:26.776Z,12.8
2022-09-29T18:12:31.285Z,12.4
2022-09-29T18:17:35.846Z,12.4
2022-09-29T18:22:39.367Z,12
2022-09-29T18:27:43.931Z,11.7
2022-09-29T18:32:48.439Z,11.6
2022-09-29T18:37:51.982Z,11.4
2022-09-29T18:42:56.600Z,11.3
2022-09-29T18:48:01.036Z,11.2
2022-09-29T18:53:05.835Z,11.2
2022-09-29T18:58:09.213Z,11.3
2022-09-29T19:03:13.689Z,11.4
2022-09-29T19:08:18.307Z,11.5
2022-09-29T19:13:21.815Z,11.5
2022-09-29T19:18:25.311Z,11.5
2022-09-29T19:23:29.847Z,11.5
2022-09-29T19:28:34.386Z,11.5
2022-09-29T19:33:38.910Z,11.2
2022-09-29T19:38:42.466Z,11.2
2022-09-29T19:43:47.022Z,11.2
2022-09-29T19:48:51.512Z,11.2
2022-09-29T19:53:55.071Z,11.2
2022-09-29T19:58:59.625Z,10.6
2022-09-29T20:04:04.121Z,10
2022-09-29T20:09:07.754Z,9.6
2022-09-29T20:14:12.261Z,9.5
2022-09-29T20:19:16.775Z,9.5
2022-09-29T20:24:20.433Z,9.5
2022-09-29T20:29:24.878Z,9.4
2022-09-29T20:34:29.383Z,9.4
2022-09-29T20:39:33.898Z,9.3
2022-09-29T20:44:37.504Z,9.2
2022-09-29T20:49:42.003Z,9.4
2022-09-29T20:54:46.556Z,9.2
2022-09-29T20:59:50.140Z,9
2022-09-29T21:04:54.621Z,8.9
2022-09-29T21:09:59.176Z,8.9
2022-09-29T21:15:02.743Z,8.9
2022-09-29T21:20:07.243Z,8.8
2022-09-29T21:25:11.777Z,8.7
2022-09-29T21:30:15.368Z,8.7
2022-09-29T21:35:20.109Z,8.6
2022-09-29T21:40:24.385Z,8.4
2022-09-29T21:45:29.010Z,8.2
2022-09-29T21:50:32.461Z,8.1
2022-09-29T21:55:37.007Z,8.2
2022-09-29T22:00:41.572Z,8.2
2022-09-29T22:05:45.098Z,8
2022-09-29T22:10:49.614Z,7.8
2022-09-29T22:15:54.213Z,8
2022-09-29T22:20:57.722Z,8.2
2022-09-29T22:26:02.229Z,8.5
2022-09-29T22:31:09.588Z,8.6
2022-09-29T22:36:10.312Z,8.6
2022-09-29T22:41:14.869Z,8.3
2022-09-29T22:46:19.468Z,8.2
2022-09-29T22:51:23.934Z,8.1
2022-09-29T22:56:27.475Z,8
2022-09-29T23:01:32.090Z,7.9
2022-09-29T23:06:36.542Z,7.8
2022-09-29T23:11:40.116Z,7.8
2022-09-29T23:16:44.762Z,7.9
2022-09-29T23:21:49.191Z,7.7
2022-09-29T23:26:52.732Z,7.4
2022-09-29T23:31:57.330Z,7.2
2022-09-29T23:37:00.818Z,7
2022-09-29T23:42:05.345Z,6.8
2022-09-29T23:47:09.886Z,6.7
2022-09-29T23:52:13.442Z,6.6
2022-09-29T23:57:18.010Z,6.5
